Time;durP1;ratioP1;P1;durP2;ratioP2;P2;SDS_P1;SDS_P2;PMS_P1;PMS_P2;Temp;Humidity;BMP_temperature;BMP_pressure;BME280_temperature;BME280_humidity;BME280_pressure;Samples;Min_cycle;Max_cycle;Signal;HPM_P1;HPM_P2
2022/07/11 00:01:52;;;;;;;0.82;0.40;;;;;;;12.06;100.00;98967.59;15266337;19;20471;-75
2022/07/11 00:07:00;;;;;;;0.77;0.47;;;;;;;12.01;100.00;98965.38;15269730;19;20014;-75
2022/07/11 00:12:06;;;;;;;1.48;0.47;;;;;;;11.98;100.00;98960.31;15266717;19;20039;-75
2022/07/11 00:17:11;;;;;;;1.10;0.40;;;;;;;11.94;100.00;98959.72;15264834;19;20258;-75
2022/07/11 00:22:20;;;;;;;1.63;0.50;;;;;;;11.90;100.00;98958.34;15263429;19;20033;-75
2022/07/11 00:27:25;;;;;;;0.90;0.50;;;;;;;11.87;100.00;98958.66;15266774;19;20010;-75
2022/07/11 00:32:30;;;;;;;1.63;0.63;;;;;;;11.81;100.00;98964.69;15273121;19;20729;-74
2022/07/11 00:37:37;;;;;;;1.13;0.60;;;;;;;11.75;100.00;98968.00;15273201;19;20030;-74
2022/07/11 00:42:42;;;;;;;1.60;0.50;;;;;;;11.67;100.00;98969.63;15270718;19;20042;-76
2022/07/11 00:47:47;;;;;;;2.25;0.60;;;;;;;11.65;100.00;98968.06;15275089;19;20345;-75
2022/07/11 00:52:57;;;;;;;1.45;0.60;;;;;;;11.62;100.00;98953.03;15278587;19;20058;-77
2022/07/11 00:58:03;;;;;;;1.35;0.60;;;;;;;11.60;100.00;98957.75;15276953;19;20034;-56
2022/07/11 01:03:10;;;;;;;1.10;0.70;;;;;;;11.60;100.00;98957.75;15287144;19;20010;-57
2022/07/11 01:08:18;;;;;;;1.52;0.60;;;;;;;11.60;100.00;98962.31;15289331;19;20010;-57
2022/07/11 01:13:23;;;;;;;1.45;0.60;;;;;;;11.60;100.00;98955.03;15285986;19;20050;-56
2022/07/11 01:18:28;;;;;;;1.15;0.50;;;;;;;11.65;100.00;98950.06;15285646;19;20149;-56
2022/07/11 01:23:36;;;;;;;2.35;0.70;;;;;;;11.68;100.00;98952.44;15280606;19;20010;-57
2022/07/11 01:28:41;;;;;;;1.33;0.68;;;;;;;11.72;100.00;98951.09;15280504;19;20055;-55
2022/07/11 01:33:46;;;;;;;1.10;0.60;;;;;;;11.74;100.00;98950.09;15284667;19;20046;-55
2022/07/11 01:38:54;;;;;;;0.85;0.60;;;;;;;11.75;100.00;98939.19;15286795;19;20010;-57
2022/07/11 01:43:59;;;;;;;1.63;0.70;;;;;;;11.74;100.00;98926.69;15285251;19;20035;-57
2022/07/11 01:49:04;;;;;;;1.33;0.52;;;;;;;11.75;100.00;98932.91;15285030;19;20464;-55
2022/07/11 01:54:11;;;;;;;0.57;0.50;;;;;;;11.74;100.00;98934.78;15279735;19;20025;-58
2022/07/11 01:59:16;;;;;;;1.33;0.60;;;;;;;11.70;100.00;98928.81;15275316;19;20373;-60
2022/07/11 02:04:22;;;;;;;1.92;0.80;;;;;;;11.66;100.00;98929.28;15274172;19;20025;-59
2022/07/11 02:09:29;;;;;;;2.05;0.80;;;;;;;11.64;100.00;98925.94;15283821;19;20385;-59
2022/07/11 02:14:35;;;;;;;2.63;0.70;;;;;;;11.59;100.00;98929.06;15280226;19;20010;-58
2022/07/11 02:19:40;;;;;;;2.75;0.70;;;;;;;11.47;100.00;98928.47;15280393;19;20018;-60
2022/07/11 02:24:48;;;;;;;1.80;0.70;;;;;;;11.37;100.00;98930.41;15276824;19;20019;-60
2022/07/11 02:29:53;;;;;;;3.90;0.93;;;;;;;11.21;100.00;98940.00;15281359;19;20014;-59
2022/07/11 02:34:58;;;;;;;2.60;1.15;;;;;;;11.11;100.00;98941.94;15273099;19;20007;-52
2022/07/11 02:40:07;;;;;;;3.17;1.50;;;;;;;11.06;100.00;98952.31;15284149;19;20055;-55
2022/07/11 02:45:13;;;;;;;3.65;1.48;;;;;;;11.05;100.00;98956.88;15282951;19;20043;-58
2022/07/11 02:50:19;;;;;;;2.60;1.40;;;;;;;11.06;100.00;98966.66;15282892;19;20014;-53
2022/07/11 02:55:27;;;;;;;3.40;1.70;;;;;;;11.06;100.00;98963.09;15279021;19;20348;-57
2022/07/11 03:00:32;;;;;;;2.35;1.20;;;;;;;11.07;100.00;98957.56;15276610;19;20018;-55
2022/07/11 03:05:38;;;;;;;3.13;1.63;;;;;;;11.09;100.00;98965.50;15275733;19;20018;-58
2022/07/11 03:10:45;;;;;;;2.72;1.83;;;;;;;11.10;100.00;98961.81;15279236;19;20354;-52
2022/07/11 03:15:51;;;;;;;3.65;1.45;;;;;;;11.13;100.00;98960.66;15278500;19;20011;-53
2022/07/11 03:20:56;;;;;;;2.08;1.10;;;;;;;11.12;100.00;98964.34;15281907;19;20010;-55
2022/07/11 03:26:04;;;;;;;3.17;1.23;;;;;;;11.13;100.00;98963.34;15280687;19;20011;-55
2022/07/11 03:31:10;;;;;;;2.40;1.13;;;;;;;11.10;100.00;98973.47;15280748;19;20478;-56
2022/07/11 03:36:18;;;;;;;2.60;1.60;;;;;;;11.09;100.00;98979.84;15266882;19;20018;-57
2022/07/11 03:41:27;;;;;;;2.67;1.45;;;;;;;11.10;100.00;98973.47;15280216;19;20019;-57
2022/07/11 03:46:32;;;;;;;2.97;1.30;;;;;;;11.09;100.00;98971.75;15278934;19;20014;-54
2022/07/11 03:51:37;;;;;;;2.65;1.45;;;;;;;11.10;100.00;98972.59;15278602;19;20014;-52
2022/07/11 03:56:45;;;;;;;3.10;1.50;;;;;;;11.13;100.00;98974.13;15277261;19;21100;-55
2022/07/11 04:01:50;;;;;;;2.20;1.30;;;;;;;11.16;100.00;98965.75;15277415;19;20041;-59
2022/07/11 04:06:56;;;;;;;1.98;1.13;;;;;;;11.17;100.00;98967.44;15269618;19;20459;-54
2022/07/11 04:12:04;;;;;;;2.50;1.10;;;;;;;11.24;100.00;98965.81;15272718;19;20015;-54
2022/07/11 04:17:09;;;;;;;3.15;1.20;;;;;;;11.29;100.00;98965.41;15277319;19;20002;-57
2022/07/11 04:22:14;;;;;;;2.40;1.05;;;;;;;11.36;100.00;98964.59;15276349;19;20017;-56
2022/07/11 04:27:22;;;;;;;1.40;1.00;;;;;;;11.44;100.00;98958.44;15269704;19;20026;-55
2022/07/11 04:32:35;;;;;;;2.00;1.17;;;;;;;11.53;100.00;98968.31;15268148;19;20025;-52
2022/07/11 04:37:41;;;;;;;2.78;1.10;;;;;;;11.65;100.00;98977.03;15270774;19;20043;-60
2022/07/11 04:42:49;;;;;;;5.38;1.30;;;;;;;11.77;100.00;98982.19;15266247;19;20018;-59
2022/07/11 04:47:54;;;;;;;2.65;1.00;;;;;;;11.86;100.00;98975.88;15275981;19;20006;-55
2022/07/11 04:52:59;;;;;;;3.78;1.02;;;;;;;11.94;100.00;98970.50;15271284;19;20605;-57
2022/07/11 04:58:06;;;;;;;6.35;0.98;;;;;;;12.02;100.00;98975.16;15272915;19;20482;-58
2022/07/11 05:03:12;;;;;;;4.00;0.90;;;;;;;12.15;100.00;98975.63;15272057;19;20014;-63
2022/07/11 05:08:17;;;;;;;3.30;0.90;;;;;;;12.31;100.00;98982.16;15272701;19;20387;-58
2022/07/11 05:13:26;;;;;;;1.98;0.90;;;;;;;12.50;100.00;98986.50;15261723;19;20082;-58
2022/07/11 05:18:31;;;;;;;1.02;0.90;;;;;;;12.70;100.00;98987.09;15273352;19;20569;-56
2022/07/11 05:23:36;;;;;;;2.30;0.95;;;;;;;12.88;100.00;98986.16;15270679;19;20017;-54
2022/07/11 05:28:44;;;;;;;1.90;0.85;;;;;;;13.01;100.00;98980.28;15272598;19;20443;-53
2022/07/11 05:33:49;;;;;;;2.17;0.70;;;;;;;13.10;100.00;98976.63;15271479;19;20034;-57
2022/07/11 05:38:55;;;;;;;2.00;0.60;;;;;;;13.18;100.00;98973.94;15274798;19;20015;-56
2022/07/11 05:44:03;;;;;;;1.45;0.68;;;;;;;13.33;100.00;98981.44;15278336;19;20025;-56
2022/07/11 05:49:09;;;;;;;1.48;0.70;;;;;;;13.42;100.00;98980.47;15279574;19;20042;-61
2022/07/11 05:54:14;;;;;;;1.10;0.60;;;;;;;13.45;100.00;98973.84;15284350;19;20010;-59
2022/07/11 05:59:21;;;;;;;2.30;0.70;;;;;;;13.46;100.00;98984.53;15281666;19;20010;-55
2022/07/11 06:04:26;;;;;;;2.25;0.80;;;;;;;13.52;100.00;98980.31;15276308;19;20037;-56
2022/07/11 06:09:31;;;;;;;1.10;0.60;;;;;;;13.61;100.00;98973.03;15280760;19;20026;-54
2022/07/11 06:14:39;;;;;;;1.70;0.60;;;;;;;13.77;100.00;98978.47;15275860;19;20006;-52
2022/07/11 06:19:44;;;;;;;2.22;0.70;;;;;;;13.85;100.00;98953.25;15278186;19;20010;-52
2022/07/11 06:24:49;;;;;;;2.08;0.65;;;;;;;14.04;100.00;98957.50;15282663;19;20022;-56
2022/07/11 06:29:57;;;;;;;2.22;0.60;;;;;;;14.17;100.00;98968.63;15286054;19;20010;-59
2022/07/11 06:35:02;;;;;;;1.60;0.60;;;;;;;14.43;100.00;98948.59;15282491;19;20495;-54
2022/07/11 06:40:10;;;;;;;0.77;0.60;;;;;;;14.61;100.00;98948.38;15282464;19;20015;-55
2022/07/11 06:45:18;;;;;;;2.60;0.70;;;;;;;14.61;100.00;98936.69;15284797;19;20023;-61
2022/07/11 06:50:23;;;;;;;1.75;0.65;;;;;;;14.61;100.00;98936.69;15269941;19;20022;-54
2022/07/11 06:55:29;;;;;;;3.55;0.60;;;;;;;14.74;100.00;98937.03;15279091;19;20074;-59
2022/07/11 07:00:37;;;;;;;1.02;0.52;;;;;;;15.00;100.00;98929.63;15282461;19;20011;-57
2022/07/11 07:05:43;;;;;;;1.08;0.55;;;;;;;15.24;100.00;98925.91;15282497;19;20014;-57
2022/07/11 07:10:48;;;;;;;1.25;0.52;;;;;;;15.19;100.00;98933.75;15280086;19;20027;-53
2022/07/11 07:15:56;;;;;;;4.07;0.70;;;;;;;15.35;100.00;98928.22;15280484;19;20021;-53
2022/07/11 07:21:03;;;;;;;2.33;0.50;;;;;;;15.33;100.00;98930.28;15276149;19;20078;-56
2022/07/11 07:26:10;;;;;;;1.70;0.52;;;;;;;15.30;100.00;98930.63;15271695;19;20010;-53
2022/07/11 07:31:17;;;;;;;3.10;0.43;;;;;;;15.44;100.00;98926.28;15279277;19;20038;-54
2022/07/11 07:36:22;;;;;;;0.47;0.30;;;;;;;15.51;100.00;98932.72;15277519;19;20019;-57
2022/07/11 07:41:28;;;;;;;2.38;0.40;;;;;;;15.67;100.00;98922.72;15278962;19;20042;-56
2022/07/11 07:46:35;;;;;;;0.90;0.20;;;;;;;15.77;100.00;98930.63;15280980;19;20015;-53
2022/07/11 07:51:41;;;;;;;1.15;0.40;;;;;;;15.79;100.00;98934.84;15274169;19;20018;-55
2022/07/11 07:56:46;;;;;;;2.70;0.32;;;;;;;15.90;100.00;98925.47;15268228;19;20010;-51
2022/07/11 08:01:53;;;;;;;0.40;0.25;;;;;;;16.33;100.00;98920.28;15277562;19;20018;-52
2022/07/11 08:06:59;;;;;;;0.30;0.30;;;;;;;16.46;100.00;98919.63;15279037;19;20010;-56
2022/07/11 08:12:05;;;;;;;1.88;0.32;;;;;;;16.33;100.00;98924.88;15276754;19;20018;-52
2022/07/11 08:17:12;;;;;;;0.63;0.40;;;;;;;16.11;100.00;98926.63;15272991;19;20010;-55
2022/07/11 08:22:18;;;;;;;0.65;0.50;;;;;;;16.01;100.00;98933.19;15273485;19;20022;-59
2022/07/11 08:27:24;;;;;;;1.50;0.60;;;;;;;15.97;100.00;98926.41;15264746;19;20014;-53
2022/07/11 08:32:46;;;;;;;0.57;0.50;;;;;;;16.14;100.00;98926.25;15277173;19;20030;-56
2022/07/11 08:37:52;;;;;;;0.52;0.43;;;;;;;16.36;100.00;98916.34;15276523;19;20022;-57
2022/07/11 08:42:59;;;;;;;0.60;0.60;;;;;;;16.61;100.00;98921.50;15274636;19;20582;-56
2022/07/11 08:48:08;;;;;;;0.85;0.50;;;;;;;16.70;100.00;98905.94;15276763;19;20467;-57
2022/07/11 08:53:16;;;;;;;1.05;0.60;;;;;;;16.83;100.00;98907.97;15273485;19;20018;-75
2022/07/11 08:58:21;;;;;;;0.65;0.50;;;;;;;17.01;100.00;98921.19;15281974;19;20018;-75
2022/07/11 09:03:28;;;;;;;1.45;0.50;;;;;;;17.10;100.00;98912.75;15263583;19;20559;-76
2022/07/11 09:08:34;;;;;;;0.65;0.40;;;;;;;17.47;100.00;98909.97;15257495;19;20430;-76
2022/07/11 09:13:40;;;;;;;0.50;0.50;;;;;;;17.34;100.00;98907.16;15266794;19;20514;-74
2022/07/11 09:18:47;;;;;;;0.43;0.40;;;;;;;17.38;100.00;98911.16;15269752;19;20420;-75
2022/07/11 09:29:14;;;;;;;0.30;0.30;;;;;;;17.86;90.21;98902.41;15272153;19;20032;-75
2022/07/11 09:34:23;;;;;;;0.40;0.32;;;;;;;17.92;86.50;98901.59;15271255;19;20022;-75
2022/07/11 09:39:30;;;;;;;1.27;0.50;;;;;;;18.01;91.21;98908.59;15278601;19;20010;-75
2022/07/11 09:44:35;;;;;;;0.88;0.45;;;;;;;17.85;91.72;98909.72;15277553;19;20014;-75
2022/07/11 09:49:43;;;;;;;0.40;0.40;;;;;;;17.97;92.76;98899.16;15278444;19;20031;-75
2022/07/11 09:55:06;;;;;;;2.78;0.50;;;;;;;18.30;91.33;98897.69;15274306;19;20019;-74
2022/07/11 10:00:29;;;;;;;1.13;0.60;;;;;;;18.24;92.54;98901.22;15273621;19;20010;-74
2022/07/11 10:05:37;;;;;;;0.40;0.40;;;;;;;18.06;83.07;98902.56;15267223;19;20035;-74
2022/07/11 10:10:43;;;;;;;2.13;0.55;;;;;;;17.96;86.23;98913.78;15278471;19;20022;-75
2022/07/11 10:15:49;;;;;;;1.25;0.57;;;;;;;18.22;91.23;98890.53;15271482;19;20027;-74
2022/07/11 10:21:03;;;;;;;0.70;0.50;;;;;;;18.46;73.75;98897.38;15275514;19;20023;-75
2022/07/11 10:26:14;;;;;;;0.40;0.40;;;;;;;18.88;75.30;98891.06;15270832;19;20054;-75
2022/07/11 10:31:23;;;;;;;1.13;0.50;;;;;;;19.17;72.08;98889.94;15271698;19;20027;-75
2022/07/11 10:36:34;;;;;;;0.75;0.40;;;;;;;19.07;76.08;98893.09;15240349;19;20017;-75
2022/07/11 10:41:40;;;;;;;0.68;0.50;;;;;;;19.03;76.86;98899.16;15273341;19;20023;-75
2022/07/11 10:46:46;;;;;;;1.42;0.40;;;;;;;18.97;76.64;98887.16;15269537;19;20074;-75
2022/07/11 10:52:01;;;;;;;0.90;0.50;;;;;;;19.20;72.00;98889.53;15271725;19;20042;-75
2022/07/11 10:57:26;;;;;;;1.40;0.50;;;;;;;19.61;70.10;98886.88;15266223;19;20788;-75
2022/07/11 11:02:32;;;;;;;0.50;0.47;;;;;;;19.66;68.26;98879.75;15274084;19;20506;-75
2022/07/11 11:07:42;;;;;;;0.57;0.50;;;;;;;19.60;69.75;98896.97;15257917;19;20014;-75
2022/07/11 11:13:16;;;;;;;0.90;0.38;;;;;;;19.73;63.10;98884.34;15272997;19;20014;-75
2022/07/11 11:18:38;;;;;;;0.70;0.40;;;;;;;19.75;60.10;98882.25;15265418;19;20090;-74
2022/07/11 11:23:48;;;;;;;0.70;0.28;;;;;;;19.83;62.33;98885.63;15270220;19;20379;-73
2022/07/11 11:28:59;;;;;;;1.02;0.50;;;;;;;19.55;63.46;98877.63;15264950;19;20014;-74
2022/07/11 11:34:06;;;;;;;0.75;0.40;;;;;;;19.56;64.28;98880.16;15269418;19;20427;-74
2022/07/11 11:39:24;;;;;;;0.30;0.30;;;;;;;19.74;63.42;98881.44;15260970;19;20010;-74
2022/07/11 11:44:29;;;;;;;0.77;0.40;;;;;;;19.85;63.90;98883.53;15268703;19;20028;-74
2022/07/11 11:49:44;;;;;;;1.67;0.40;;;;;;;19.82;61.33;98870.28;15268412;19;20014;-74
2022/07/11 11:54:59;;;;;;;0.38;0.30;;;;;;;20.08;59.41;98873.22;15266025;19;20467;-74
2022/07/11 12:00:06;;;;;;;0.50;0.35;;;;;;;20.26;62.03;98875.31;15267231;19;20014;-73
2022/07/11 12:05:11;;;;;;;0.40;0.40;;;;;;;20.18;61.61;98890.03;15267403;19;20014;-73
2022/07/11 12:10:18;;;;;;;0.63;0.30;;;;;;;20.16;68.39;98879.31;15266178;19;20375;-74
2022/07/11 12:15:34;;;;;;;0.60;0.30;;;;;;;20.24;69.95;98875.53;15264678;19;20014;-71
2022/07/11 12:20:44;;;;;;;2.15;0.55;;;;;;;20.65;66.00;98879.00;15273654;19;20017;-74
2022/07/11 12:25:53;;;;;;;2.80;0.30;;;;;;;20.26;67.78;98889.00;15269531;19;20035;-74
2022/07/11 12:30:59;;;;;;;1.95;0.40;;;;;;;20.73;69.88;98869.72;15266804;19;20023;-73
2022/07/11 12:36:05;;;;;;;0.55;0.25;;;;;;;20.94;66.10;98858.47;15259849;19;20050;-72
2022/07/11 12:41:13;;;;;;;0.45;0.40;;;;;;;20.72;64.94;98865.28;15262958;19;20027;-71
2022/07/11 12:46:20;;;;;;;0.98;0.32;;;;;;;20.89;65.35;98861.03;15262328;19;20503;-74
2022/07/11 12:51:31;;;;;;;0.70;0.30;;;;;;;21.06;63.44;98855.88;15297683;19;20472;-74
2022/07/11 12:56:39;;;;;;;0.82;0.30;;;;;;;21.51;71.33;98848.66;15295437;19;20014;-72
2022/07/11 17:51:59;;;;;;;1.48;0.35;;;;;;;22.13;62.71;98857.00;15279894;19;20014;-57
2022/07/11 17:57:04;;;;;;;0.63;0.30;;;;;;;21.99;65.80;98859.03;15276298;19;20042;-59
2022/07/11 18:02:11;;;;;;;0.55;0.30;;;;;;;22.00;68.71;98851.66;15287149;19;20007;-57
2022/07/11 18:07:22;;;;;;;0.80;0.38;;;;;;;21.91;72.69;98855.75;15276638;19;20011;-56
2022/07/11 18:12:28;;;;;;;0.45;0.20;;;;;;;21.74;79.21;98855.47;15280947;19;20010;-58
2022/07/11 18:17:33;;;;;;;1.00;0.30;;;;;;;21.21;90.99;98872.03;15281585;19;20018;-56
2022/07/11 18:22:41;;;;;;;2.25;0.40;;;;;;;20.73;100.00;98862.31;15277777;19;20039;-56
2022/07/11 18:27:47;;;;;;;0.98;0.40;;;;;;;20.40;100.00;98857.81;15285818;19;20382;-58
2022/07/11 18:32:53;;;;;;;0.60;0.30;;;;;;;20.09;100.00;98866.72;15281701;19;20007;-56
2022/07/11 18:38:00;;;;;;;1.55;0.35;;;;;;;19.84;100.00;98870.06;15276655;19;20018;-61
2022/07/11 18:43:08;;;;;;;1.20;0.30;;;;;;;19.61;100.00;98870.50;15276769;19;20748;-57
2022/07/11 18:48:16;;;;;;;1.30;0.30;;;;;;;19.59;100.00;98876.16;15283737;19;20015;-56
2022/07/11 18:53:24;;;;;;;0.80;0.17;;;;;;;19.47;100.00;98881.41;15282081;19;20042;-54
2022/07/11 18:58:29;;;;;;;2.13;0.20;;;;;;;19.36;100.00;98887.47;15276773;19;20240;-54
2022/07/11 19:03:34;;;;;;;0.63;0.20;;;;;;;19.18;100.00;98893.53;15279798;19;20018;-55
2022/07/11 19:08:42;;;;;;;1.42;0.20;;;;;;;19.06;100.00;98902.31;15273907;19;20021;-54
2022/07/11 19:13:47;;;;;;;1.13;0.20;;;;;;;18.84;100.00;98898.81;15276641;19;20030;-58
2022/07/11 19:18:52;;;;;;;1.55;0.22;;;;;;;18.72;100.00;98914.09;15278215;19;20321;-49
2022/07/11 19:24:00;;;;;;;1.40;0.20;;;;;;;18.56;100.00;98913.41;15278649;19;20010;-50
2022/07/11 19:29:05;;;;;;;3.78;0.20;;;;;;;18.33;100.00;98938.22;15275435;19;20042;-56
2022/07/11 19:34:11;;;;;;;1.50;0.15;;;;;;;18.21;100.00;98942.53;15276173;19;20010;-57
2022/07/11 19:39:18;;;;;;;0.65;0.20;;;;;;;18.06;100.00;98945.34;15273136;19;20033;-54
2022/07/11 19:44:24;;;;;;;0.63;0.20;;;;;;;17.87;100.00;98953.97;15256161;19;20014;-59
2022/07/11 19:49:29;;;;;;;1.08;0.28;;;;;;;17.75;100.00;98966.44;15272922;19;20014;-55
2022/07/11 19:59:57;;;;;;;0.30;0.20;;;;;;;17.45;100.00;98979.31;15277948;19;20367;-54
2022/07/11 20:05:02;;;;;;;0.70;0.20;;;;;;;17.27;100.00;98986.03;15280531;19;20018;-59
2022/07/11 20:10:11;;;;;;;0.32;0.10;;;;;;;17.13;100.00;98981.47;15280381;19;20014;-51
2022/07/11 20:15:17;;;;;;;0.95;0.20;;;;;;;16.98;100.00;98986.94;15266043;19;20786;-55
2022/07/11 20:20:23;;;;;;;0.20;0.10;;;;;;;16.83;100.00;98984.16;15258251;19;20018;-61
2022/07/11 20:25:31;;;;;;;0.85;0.30;;;;;;;16.62;100.00;98988.47;15280503;19;20011;-53
2022/07/11 20:30:36;;;;;;;1.08;0.30;;;;;;;16.51;100.00;99003.41;15278885;19;20014;-58
2022/07/11 20:35:42;;;;;;;0.60;0.40;;;;;;;16.42;100.00;98996.31;15278731;19;20364;-57
2022/07/11 20:40:52;;;;;;;2.03;0.20;;;;;;;16.36;100.00;99011.50;15279772;19;20006;-56
2022/07/11 20:45:57;;;;;;;0.80;0.20;;;;;;;16.24;100.00;99013.84;15274260;19;20015;-54
2022/07/11 20:51:02;;;;;;;0.75;0.20;;;;;;;16.17;100.00;99016.44;15271679;19;20014;-60
2022/07/11 20:56:10;;;;;;;0.30;0.20;;;;;;;16.14;100.00;99021.41;15273716;19;20007;-53
2022/07/11 21:01:16;;;;;;;0.20;0.15;;;;;;;16.07;100.00;99017.72;15275027;19;20014;-52
2022/07/11 21:06:22;;;;;;;1.48;0.20;;;;;;;16.04;100.00;99021.66;15276500;19;20022;-51
2022/07/11 21:11:29;;;;;;;0.30;0.25;;;;;;;15.98;100.00;99033.25;15283765;19;20019;-51
2022/07/11 21:16:35;;;;;;;0.17;0.10;;;;;;;15.86;100.00;99033.69;15285575;19;20015;-61
2022/07/11 21:21:40;;;;;;;0.35;0.20;;;;;;;15.81;100.00;99035.22;15280366;19;20025;-51
2022/07/11 21:26:48;;;;;;;1.10;0.30;;;;;;;15.70;100.00;99028.31;15290065;19;20021;-59
2022/07/11 21:31:53;;;;;;;0.30;0.30;;;;;;;15.64;100.00;99029.03;15284514;19;20050;-53
2022/07/11 21:36:58;;;;;;;0.35;0.15;;;;;;;15.61;100.00;99038.38;15286541;19;20030;-54
2022/07/11 21:42:06;;;;;;;1.40;0.20;;;;;;;15.61;100.00;99040.25;15285641;19;20613;-57
2022/07/11 21:47:11;;;;;;;1.08;0.30;;;;;;;15.61;100.00;99035.66;15290688;19;20408;-54
2022/07/11 21:52:16;;;;;;;0.50;0.20;;;;;;;15.62;100.00;99045.50;15275951;19;20502;-56
2022/07/11 21:57:24;;;;;;;1.17;0.22;;;;;;;15.59;100.00;99043.13;15288492;19;20042;-50
2022/07/11 22:02:29;;;;;;;0.55;0.32;;;;;;;15.54;100.00;99046.38;15288209;19;20038;-51
2022/07/11 22:07:34;;;;;;;0.45;0.30;;;;;;;15.45;100.00;99052.06;15287662;19;20010;-59
2022/07/11 22:12:42;;;;;;;0.55;0.20;;;;;;;15.41;100.00;99046.97;15285752;19;20046;-51
2022/07/11 22:17:47;;;;;;;0.85;0.30;;;;;;;15.24;100.00;99061.63;15286679;19;20482;-55
2022/07/11 22:22:54;;;;;;;0.50;0.30;;;;;;;15.20;100.00;99058.41;15279036;19;20039;-49
2022/07/11 22:28:01;;;;;;;0.30;0.30;;;;;;;15.08;100.00;99052.53;15281671;19;20038;-52
2022/07/11 22:33:07;;;;;;;1.95;0.20;;;;;;;15.08;100.00;99055.25;15285142;19;20030;-51
2022/07/11 22:38:12;;;;;;;0.40;0.30;;;;;;;15.07;100.00;99059.00;15285166;19;20007;-55
2022/07/11 22:43:22;;;;;;;0.30;0.30;;;;;;;15.07;100.00;99050.84;15285154;19;20021;-60
2022/07/11 22:48:27;;;;;;;0.98;0.30;;;;;;;15.07;100.00;99059.00;15287093;19;20034;-51
2022/07/11 22:53:32;;;;;;;1.30;0.20;;;;;;;15.06;100.00;99054.59;15279949;19;20018;-53
2022/07/11 22:58:40;;;;;;;0.40;0.32;;;;;;;15.02;100.00;99057.81;15277354;19;20014;-52
2022/07/11 23:03:44;;;;;;;0.60;0.22;;;;;;;14.96;100.00;99053.94;15283056;19;20010;-54
2022/07/11 23:08:53;;;;;;;0.65;0.20;;;;;;;14.91;100.00;99051.75;15285353;19;20007;-60
2022/07/11 23:14:00;;;;;;;0.77;0.22;;;;;;;14.88;100.00;99062.09;15282888;19;20404;-53
2022/07/11 23:19:05;;;;;;;1.15;0.35;;;;;;;14.84;100.00;99061.59;15281748;19;20014;-53
2022/07/11 23:24:10;;;;;;;0.30;0.30;;;;;;;14.79;100.00;99053.13;15280901;19;20023;-54
2022/07/11 23:29:18;;;;;;;0.25;0.25;;;;;;;14.74;100.00;99060.94;15272210;19;20010;-53
2022/07/11 23:34:23;;;;;;;0.82;0.40;;;;;;;14.66;100.00;99069.91;15281134;19;20027;-60
2022/07/11 23:39:28;;;;;;;0.77;0.20;;;;;;;14.60;100.00;99073.31;15280757;19;20002;-54
2022/07/11 23:44:35;;;;;;;1.55;0.30;;;;;;;14.60;100.00;99070.59;15281231;19;20021;-53
2022/07/11 23:49:40;;;;;;;0.40;0.40;;;;;;;14.54;100.00;99069.41;15280589;19;20035;-53
2022/07/11 23:54:46;;;;;;;0.95;0.50;;;;;;;14.53;100.00;99073.16;15296236;19;20018;-85
2022/07/11 23:59:55;;;;;;;0.20;0.20;;;;;;;14.51;100.00;99068.91;15293581;19;20010;-83
